Time;durP1;ratioP1;P1;durP2;ratioP2;P2;SDS_P1;SDS_P2;PMS_P1;PMS_P2;Temp;Humidity;BMP_temperature;BMP_pressure;BME280_temperature;BME280_humidity;BME280_pressure;Samples;Min_cycle;Max_cycle;Signal;HPM_P1;HPM_P2
2023/08/08 00:01:07;;;;;;;;;;;26.10;72.60;;;;;;5174543;27;20653;-34
2023/08/08 00:03:34;;;;;;;;;;;26.10;72.70;;;;;;5177375;27;19972;-34
2023/08/08 00:06:00;;;;;;;;;;;26.10;72.70;;;;;;5167356;27;21913;-34
2023/08/08 00:08:26;;;;;;;;;;;26.10;72.80;;;;;;5172069;27;19911;-34
2023/08/08 00:10:52;;;;;;;;;;;26.10;73.00;;;;;;5167234;27;20104;-34
2023/08/08 00:13:18;;;;;;;;;;;26.10;73.00;;;;;;5174348;27;19922;-34
2023/08/08 00:15:43;;;;;;;;;;;26.10;72.90;;;;;;5167133;27;20279;-34
2023/08/08 00:18:10;;;;;;;;;;;26.20;73.00;;;;;;5177442;27;20375;-34
2023/08/08 00:20:35;;;;;;;;;;;26.10;73.10;;;;;;5179782;27;19919;-34
2023/08/08 00:23:01;;;;;;;;;;;26.20;73.10;;;;;;5174134;27;19907;-34
2023/08/08 00:25:27;;;;;;;;;;;26.20;73.20;;;;;;5167271;27;19915;-34
2023/08/08 00:27:53;;;;;;;;;;;26.10;73.10;;;;;;5170275;27;19935;-34
2023/08/08 00:30:19;;;;;;;;;;;26.20;73.90;;;;;;5173974;27;19911;-34
2023/08/08 00:32:45;;;;;;;;;;;26.20;73.30;;;;;;5181758;27;19911;-34
2023/08/08 00:35:11;;;;;;;;;;;26.20;73.30;;;;;;5174325;27;19986;-35
2023/08/08 00:37:37;;;;;;;;;;;26.10;73.20;;;;;;5172911;27;20013;-34
2023/08/08 00:40:03;;;;;;;;;;;26.20;73.30;;;;;;5173798;27;19933;-34
2023/08/08 00:42:29;;;;;;;;;;;26.20;73.40;;;;;;5175787;27;20579;-34
2023/08/08 00:45:01;;;;;;;;;;;26.20;73.40;;;;;;5174384;27;19915;-34
2023/08/08 00:47:27;;;;;;;;;;;26.20;73.50;;;;;;5174841;27;19925;-35
2023/08/08 00:49:53;;;;;;;;;;;26.20;73.40;;;;;;5180588;27;19915;-34
2023/08/08 00:52:19;;;;;;;;;;;26.20;73.40;;;;;;5171078;27;19982;-34
2023/08/08 00:54:45;;;;;;;;;;;26.20;73.60;;;;;;5177598;27;19932;-35
2023/08/08 00:57:11;;;;;;;;;;;26.20;73.40;;;;;;5179032;27;19935;-34
2023/08/08 00:59:37;;;;;;;;;;;26.20;73.60;;;;;;5158095;27;19930;-34
2023/08/08 01:02:03;;;;;;;;;;;26.20;73.60;;;;;;5176489;27;19915;-34
2023/08/08 01:04:29;;;;;;;;;;;26.20;73.60;;;;;;5173407;27;19996;-34
2023/08/08 01:06:55;;;;;;;;;;;26.20;73.60;;;;;;5175377;27;19919;-35
2023/08/08 01:09:36;;;;;;;;;;;26.20;73.60;;;;;;5172218;27;19911;-34
2023/08/08 01:12:02;;;;;;;;;;;26.10;73.40;;;;;;5163008;27;19918;-34
2023/08/08 01:14:28;;;;;;;;;;;26.20;73.80;;;;;;5183344;27;19991;-34
2023/08/08 01:16:57;;;;;;;;;;;26.20;74.20;;;;;;5163254;27;19914;-34
2023/08/08 01:19:24;;;;;;;;;;;26.20;73.50;;;;;;5173902;27;19945;-35
2023/08/08 01:21:50;;;;;;;;;;;26.20;73.60;;;;;;5152844;27;19951;-34
2023/08/08 01:24:30;;;;;;;;;;;26.20;73.50;;;;;;5167853;27;19956;-34
2023/08/08 01:26:56;;;;;;;;;;;26.20;73.50;;;;;;5158403;27;19942;-34
2023/08/08 01:29:22;;;;;;;;;;;26.20;73.60;;;;;;5168243;27;19915;-34
2023/08/08 01:31:48;;;;;;;;;;;26.20;73.60;;;;;;5174060;27;19935;-34
2023/08/08 01:34:14;;;;;;;;;;;26.20;73.70;;;;;;5180050;27;20362;-36
2023/08/08 01:36:46;;;;;;;;;;;26.20;73.80;;;;;;5175885;27;19923;-34
2023/08/08 01:39:13;;;;;;;;;;;26.10;73.60;;;;;;5153403;27;19910;-34
2023/08/08 01:41:39;;;;;;;;;;;26.10;73.50;;;;;;5165544;27;19911;-34
2023/08/08 01:44:06;;;;;;;;;;;26.10;73.40;;;;;;5150876;27;19907;-34
2023/08/08 01:46:32;;;;;;;;;;;26.10;73.40;;;;;;5174784;27;19919;-35
2023/08/08 01:48:59;;;;;;;;;;;26.10;73.40;;;;;;5184080;27;19918;-34
2023/08/08 01:51:25;;;;;;;;;;;26.10;73.40;;;;;;5174484;27;19968;-34
2023/08/08 01:53:51;;;;;;;;;;;26.10;73.20;;;;;;5179241;27;19911;-34
2023/08/08 01:56:17;;;;;;;;;;;26.10;73.20;;;;;;5169557;27;19915;-35
2023/08/08 01:58:43;;;;;;;;;;;26.10;73.20;;;;;;5181929;27;20373;-35
2023/08/08 02:01:09;;;;;;;;;;;26.10;73.10;;;;;;5169053;27;19968;-34
2023/08/08 02:33:09;;;;;;;1.08;0.93;;;26.00;72.90;;;;;;5093268;28;20438;-34
2023/08/08 02:35:37;;;;;;;1.65;0.80;;;26.00;73.00;;;;;;5083864;28;20025;-34
2023/08/08 02:38:04;;;;;;;0.80;0.60;;;26.00;73.00;;;;;;5069075;28;20024;-34
2023/08/08 02:40:30;;;;;;;1.10;0.90;;;26.00;73.00;;;;;;5074636;28;20548;-34
2023/08/08 02:42:56;;;;;;;0.90;0.73;;;26.00;73.00;;;;;;5084197;28;20105;-35
2023/08/08 02:45:23;;;;;;;1.35;0.98;;;26.00;73.00;;;;;;5094730;28;20034;-34
2023/08/08 02:47:49;;;;;;;1.90;0.90;;;26.00;72.90;;;;;;5084923;28;20039;-34
2023/08/08 02:50:15;;;;;;;0.93;0.80;;;26.00;72.80;;;;;;5083260;28;20028;-34
2023/08/08 02:52:42;;;;;;;1.80;1.08;;;26.00;72.90;;;;;;5078719;28;20041;-34
2023/08/08 02:55:08;;;;;;;2.35;0.80;;;26.00;72.80;;;;;;5077793;28;20086;-34
2023/08/08 02:57:35;;;;;;;1.27;0.93;;;26.00;72.90;;;;;;5080574;28;20452;-34
2023/08/08 03:00:03;;;;;;;1.35;1.00;;;26.00;72.90;;;;;;5076474;28;20012;-34
2023/08/08 03:02:34;;;;;;;1.27;0.82;;;26.00;72.90;;;;;;5077847;28;20083;-34
2023/08/08 03:05:02;;;;;;;0.65;0.65;;;26.00;72.90;;;;;;5097853;28;20047;-34
2023/08/08 03:07:28;;;;;;;1.00;0.85;;;26.00;73.00;;;;;;5089316;28;20032;-34
2023/08/08 03:09:54;;;;;;;1.65;0.90;;;25.90;72.90;;;;;;5087031;28;20435;-34
2023/08/08 03:12:21;;;;;;;1.07;0.97;;;25.90;73.60;;;;;;5078378;28;20071;-34
2023/08/08 03:14:47;;;;;;;1.60;0.80;;;25.90;73.00;;;;;;5087379;28;20511;-34
2023/08/08 03:17:13;;;;;;;0.88;0.80;;;25.90;73.10;;;;;;5072531;28;20033;-33
2023/08/08 03:19:39;;;;;;;1.27;1.10;;;25.90;73.00;;;;;;5077158;28;20029;-34
2023/08/08 03:22:06;;;;;;;1.20;0.80;;;25.90;73.10;;;;;;5070269;28;20037;-34
2023/08/08 03:24:32;;;;;;;2.30;0.77;;;25.90;73.00;;;;;;5086875;28;20036;-33
2023/08/08 03:26:58;;;;;;;1.37;0.90;;;25.90;73.10;;;;;;5079084;28;20027;-34
2023/08/08 03:29:24;;;;;;;0.80;0.80;;;25.90;73.10;;;;;;5076577;28;20134;-34
2023/08/08 03:31:50;;;;;;;1.27;0.87;;;25.90;73.20;;;;;;5073455;28;20049;-34
2023/08/08 03:34:16;;;;;;;0.95;0.90;;;25.90;73.30;;;;;;5062150;28;20282;-34
2023/08/08 03:36:43;;;;;;;1.65;0.68;;;25.90;73.20;;;;;;5071219;28;20109;-34
2023/08/08 03:39:09;;;;;;;0.60;0.60;;;25.90;74.10;;;;;;5061776;28;20033;-34
2023/08/08 03:41:36;;;;;;;1.75;0.80;;;25.90;73.30;;;;;;5063808;28;20032;-34
2023/08/08 03:44:02;;;;;;;;;;;25.80;73.30;;;;;;5065569;28;20025;-34
2023/08/08 03:46:29;;;;;;;0.75;0.75;;;25.80;73.30;;;;;;5074801;28;20169;-34
2023/08/08 03:48:55;;;;;;;1.00;0.90;;;25.80;73.30;;;;;;5073442;28;20470;-34
2023/08/08 03:51:21;;;;;;;0.90;0.90;;;25.80;73.30;;;;;;5076722;28;20048;-34
2023/08/08 03:53:47;;;;;;;1.20;0.90;;;25.80;73.40;;;;;;5059967;28;20037;-35
2023/08/08 03:56:13;;;;;;;1.00;0.85;;;25.80;73.40;;;;;;5058556;28;20055;-34
2023/08/08 03:58:40;;;;;;;0.80;0.80;;;25.80;73.50;;;;;;5062067;28;20032;-34
2023/08/08 04:01:06;;;;;;;1.37;0.87;;;25.80;73.50;;;;;;5062315;28;20029;-34
2023/08/08 04:03:32;;;;;;;1.00;0.73;;;25.80;73.60;;;;;;5063459;28;20037;-34
2023/08/08 04:05:58;;;;;;;0.98;0.80;;;25.80;73.60;;;;;;5065854;28;20053;-34
2023/08/08 04:08:24;;;;;;;1.10;0.70;;;25.80;73.60;;;;;;5059260;28;20036;-34
2023/08/08 04:10:50;;;;;;;0.60;0.60;;;25.80;73.70;;;;;;5058749;28;20065;-34
2023/08/08 04:13:16;;;;;;;0.80;0.80;;;25.80;73.70;;;;;;5071621;28;20058;-34
2023/08/08 04:15:43;;;;;;;1.15;0.80;;;25.80;73.60;;;;;;5062814;28;20025;-34
2023/08/08 04:18:09;;;;;;;1.10;0.80;;;25.70;73.50;;;;;;5062476;28;20032;-34
2023/08/08 04:20:35;;;;;;;0.80;0.80;;;25.70;73.60;;;;;;5070607;28;20029;-34
2023/08/08 04:23:01;;;;;;;1.10;0.80;;;25.70;73.60;;;;;;5063043;28;20029;-36
2023/08/08 04:25:27;;;;;;;1.23;0.70;;;25.70;73.60;;;;;;5063154;28;20017;-34
2023/08/08 04:27:54;;;;;;;0.77;0.77;;;25.70;73.60;;;;;;5063790;28;20089;-34
2023/08/08 04:30:20;;;;;;;0.77;0.70;;;25.70;73.70;;;;;;5063155;28;20361;-34
2023/08/08 04:32:46;;;;;;;1.20;0.90;;;25.70;73.60;;;;;;5061418;28;20436;-34
2023/08/08 04:35:12;;;;;;;0.90;0.70;;;25.70;73.70;;;;;;5063609;28;20025;-34
2023/08/08 04:37:38;;;;;;;0.73;0.70;;;25.70;73.80;;;;;;5062466;28;20033;-34
2023/08/08 04:40:05;;;;;;;0.80;0.80;;;25.70;73.80;;;;;;5068964;28;20025;-34
2023/08/08 04:42:32;;;;;;;1.20;0.60;;;25.70;73.80;;;;;;5075191;28;20718;-34
2023/08/08 04:44:58;;;;;;;1.15;0.82;;;25.70;73.80;;;;;;5055403;28;20089;-34
2023/08/08 04:47:24;;;;;;;1.07;0.90;;;25.70;73.80;;;;;;5069505;28;20029;-34
2023/08/08 04:49:51;;;;;;;1.38;0.80;;;25.70;73.90;;;;;;5069072;28;20035;-34
2023/08/08 04:52:17;;;;;;;0.85;0.80;;;25.60;73.90;;;;;;5070801;28;20028;-34
2023/08/08 04:54:44;;;;;;;2.27;0.77;;;25.60;73.90;;;;;;5070486;28;20033;-34
2023/08/08 04:57:10;;;;;;;1.27;1.00;;;25.60;74.00;;;;;;5060874;28;20492;-34
2023/08/08 04:59:36;;;;;;;1.30;0.80;;;25.60;74.00;;;;;;5061600;28;20044;-34
2023/08/08 05:02:02;;;;;;;0.93;0.77;;;25.60;74.10;;;;;;5058817;28;20043;-34
2023/08/08 05:04:28;;;;;;;0.80;0.80;;;25.60;74.20;;;;;;5062604;28;20200;-34
2023/08/08 05:06:55;;;;;;;2.72;1.10;;;25.60;74.20;;;;;;5054660;28;20032;-34
2023/08/08 05:09:23;;;;;;;0.70;0.70;;;25.60;74.20;;;;;;5055361;28;20061;-34
2023/08/08 05:11:49;;;;;;;0.98;0.80;;;25.60;74.20;;;;;;5071183;28;20029;-34
2023/08/08 05:14:15;;;;;;;0.73;0.70;;;25.60;74.30;;;;;;5063776;28;20025;-34
2023/08/08 05:16:41;;;;;;;0.80;0.70;;;25.60;74.30;;;;;;5065967;28;20024;-34
2023/08/08 05:19:07;;;;;;;2.40;0.95;;;25.60;74.20;;;;;;5065872;28;20021;-34
2023/08/08 05:21:34;;;;;;;1.08;0.80;;;25.60;74.20;;;;;;5065279;28;20094;-34
2023/08/08 05:24:00;;;;;;;;;;;25.60;74.30;;;;;;5074146;28;20036;-34
2023/08/08 05:26:26;;;;;;;0.77;0.77;;;25.50;74.20;;;;;;5064788;28;19912;-34
2023/08/08 05:28:52;;;;;;;0.80;0.70;;;25.50;74.20;;;;;;5060620;28;20655;-34
2023/08/08 05:31:19;;;;;;;0.97;0.90;;;25.50;74.30;;;;;;5054559;28;20037;-34
2023/08/08 05:33:45;;;;;;;0.98;0.90;;;25.50;74.30;;;;;;5062910;28;20472;-34
2023/08/08 05:36:11;;;;;;;1.77;1.10;;;25.50;74.30;;;;;;5060665;28;20028;-34
2023/08/08 05:38:37;;;;;;;0.70;0.70;;;25.50;74.30;;;;;;5054983;28;20028;-34
2023/08/08 05:41:03;;;;;;;1.17;0.80;;;25.50;74.30;;;;;;5062514;28;20108;-34
2023/08/08 05:43:29;;;;;;;3.50;1.07;;;25.50;74.40;;;;;;5070976;28;20032;-34
2023/08/08 05:45:56;;;;;;;1.08;0.98;;;25.50;74.50;;;;;;5068153;28;20041;-34
2023/08/08 05:48:22;;;;;;;1.10;0.80;;;25.50;74.40;;;;;;5055636;28;20033;-33
2023/08/08 05:50:48;;;;;;;0.80;0.77;;;25.50;74.50;;;;;;5056663;28;20033;-34
2023/08/08 05:53:14;;;;;;;1.42;0.90;;;25.50;74.60;;;;;;5062732;28;20028;-37
2023/08/08 05:55:42;;;;;;;0.68;0.60;;;25.50;74.60;;;;;;5073101;28;20027;-34
2023/08/08 05:58:09;;;;;;;0.68;0.68;;;25.50;74.60;;;;;;5070302;28;20103;-34
2023/08/08 06:00:35;;;;;;;1.10;0.73;;;25.40;74.60;;;;;;5068939;28;20032;-34
2023/08/08 06:03:01;;;;;;;0.98;0.93;;;25.40;74.70;;;;;;5067777;28;20041;-34
2023/08/08 06:05:28;;;;;;;0.80;0.80;;;25.40;74.70;;;;;;5063097;28;20009;-34
2023/08/08 06:07:57;;;;;;;2.35;0.85;;;25.40;74.60;;;;;;5057066;28;20029;-34
2023/08/08 06:10:25;;;;;;;0.93;0.80;;;25.40;74.70;;;;;;5064977;28;20025;-34
2023/08/08 06:12:51;;;;;;;0.80;0.80;;;25.40;74.70;;;;;;5064446;28;20546;-34
2023/08/08 06:15:17;;;;;;;1.00;0.85;;;25.40;74.70;;;;;;5070073;28;20031;-33
2023/08/08 06:17:44;;;;;;;1.07;0.77;;;25.40;74.80;;;;;;5069327;28;20025;-34
2023/08/08 06:20:10;;;;;;;0.82;0.80;;;25.40;74.70;;;;;;5059349;28;20043;-34
2023/08/08 06:22:37;;;;;;;1.30;0.77;;;25.40;74.80;;;;;;5071102;28;20044;-34
2023/08/08 06:25:03;;;;;;;1.67;1.13;;;25.40;74.80;;;;;;5064656;28;20059;-34
2023/08/08 06:27:30;;;;;;;0.68;0.60;;;25.40;74.80;;;;;;5060184;28;20036;-34
2023/08/08 06:29:56;;;;;;;1.10;0.85;;;25.40;74.90;;;;;;5056171;28;20059;-34
2023/08/08 06:32:22;;;;;;;0.80;0.80;;;25.40;74.80;;;;;;5061890;28;20065;-34
2023/08/08 06:34:48;;;;;;;4.82;0.98;;;25.30;74.80;;;;;;5066371;28;20281;-34
2023/08/08 06:37:14;;;;;;;1.30;1.10;;;25.30;74.70;;;;;;5064280;28;20096;-34
2023/08/08 06:39:41;;;;;;;0.93;0.80;;;25.30;74.90;;;;;;5061082;28;20039;-34
2023/08/08 06:42:08;;;;;;;1.88;0.85;;;25.30;74.90;;;;;;5063204;28;20048;-34
2023/08/08 06:44:40;;;;;;;1.83;1.00;;;25.30;74.90;;;;;;5062475;28;20951;-34
2023/08/08 06:47:06;;;;;;;1.65;0.88;;;25.30;75.00;;;;;;5041858;28;20036;-34
2023/08/08 06:49:32;;;;;;;1.65;0.70;;;25.30;75.00;;;;;;5058120;28;20028;-33
2023/08/08 06:51:59;;;;;;;0.98;0.80;;;25.30;75.00;;;;;;5070707;28;20046;-34
2023/08/08 06:54:25;;;;;;;0.80;0.80;;;25.30;75.00;;;;;;5062409;28;20025;-34
2023/08/08 06:56:51;;;;;;;4.72;0.80;;;25.30;75.00;;;;;;5063684;28;20017;-34
2023/08/08 06:59:18;;;;;;;0.70;0.70;;;25.30;75.00;;;;;;5063119;28;20489;-34
2023/08/08 07:01:44;;;;;;;1.77;1.00;;;25.30;75.00;;;;;;5061195;28;20044;-34
2023/08/08 07:04:10;;;;;;;0.90;0.90;;;25.20;75.00;;;;;;5065728;28;20029;-35
2023/08/08 07:06:36;;;;;;;1.13;1.00;;;25.20;75.00;;;;;;5060899;28;20029;-34
2023/08/08 07:09:02;;;;;;;1.85;0.82;;;25.20;75.00;;;;;;5065001;28;20031;-34
2023/08/08 07:11:28;;;;;;;1.37;0.90;;;25.20;75.10;;;;;;5063380;28;20055;-34
2023/08/08 07:13:56;;;;;;;1.02;0.80;;;25.20;75.20;;;;;;5065910;28;20051;-34
2023/08/08 07:16:22;;;;;;;0.85;0.82;;;25.20;75.10;;;;;;5044276;28;20077;-34
2023/08/08 07:18:48;;;;;;;0.90;0.65;;;25.20;75.10;;;;;;5076960;28;20028;-34
2023/08/08 07:21:14;;;;;;;2.55;0.70;;;25.20;75.20;;;;;;5075507;28;20036;-34
2023/08/08 07:23:41;;;;;;;2.33;0.80;;;25.20;75.20;;;;;;5065438;28;20029;-34
2023/08/08 07:26:07;;;;;;;1.55;0.90;;;25.20;75.20;;;;;;5069741;28;20040;-34
2023/08/08 07:28:33;;;;;;;0.73;0.73;;;25.20;75.20;;;;;;5066425;28;20068;-34
2023/08/08 07:30:59;;;;;;;2.13;0.90;;;25.20;75.20;;;;;;5061440;28;20030;-34
2023/08/08 07:33:25;;;;;;;1.40;1.00;;;25.20;75.20;;;;;;5062567;28;20029;-34
2023/08/08 07:35:51;;;;;;;0.93;0.82;;;25.20;75.20;;;;;;5053380;28;20082;-34
2023/08/08 07:38:17;;;;;;;2.17;0.70;;;25.20;75.30;;;;;;5060818;28;20029;-34
2023/08/08 07:40:43;;;;;;;3.47;1.07;;;25.20;75.20;;;;;;5064701;28;20023;-34
2023/08/08 07:43:10;;;;;;;1.20;0.90;;;25.20;75.20;;;;;;5064082;28;20083;-34
2023/08/08 07:45:37;;;;;;;1.30;0.80;;;25.10;75.10;;;;;;5056667;28;20032;-34
2023/08/08 07:48:03;;;;;;;;;;;25.10;75.20;;;;;;5046574;28;20055;-34
2023/08/08 07:50:29;;;;;;;2.55;0.80;;;25.10;75.20;;;;;;5070226;28;20007;-34
2023/08/08 07:52:55;;;;;;;0.93;0.85;;;25.10;75.20;;;;;;5057005;28;20027;-34
2023/08/08 07:55:22;;;;;;;1.63;0.70;;;25.10;75.30;;;;;;5062719;28;20079;-34
2023/08/08 07:57:48;;;;;;;1.60;1.10;;;25.10;75.30;;;;;;5042599;28;20022;-34
2023/08/08 08:00:18;;;;;;;1.10;1.00;;;25.10;75.20;;;;;;5062879;28;20024;-34
2023/08/08 08:02:44;;;;;;;2.33;1.10;;;25.10;75.30;;;;;;5062717;28;20041;-34
2023/08/08 08:05:11;;;;;;;2.45;0.90;;;25.10;75.30;;;;;;5064691;28;20111;-34
2023/08/08 08:07:37;;;;;;;1.40;0.77;;;25.10;75.40;;;;;;5061265;28;20112;-34
2023/08/08 08:10:04;;;;;;;1.00;0.87;;;25.10;75.30;;;;;;5065666;28;20025;-34
2023/08/08 08:12:31;;;;;;;;;;;25.10;75.30;;;;;;5072025;28;20273;-34
2023/08/08 08:14:57;;;;;;;1.52;0.98;;;25.00;75.30;;;;;;5070470;28;19935;-34
2023/08/08 08:17:23;;;;;;;1.00;0.80;;;25.10;75.40;;;;;;5047681;28;20485;-34
2023/08/08 08:19:51;;;;;;;0.60;0.57;;;25.00;75.30;;;;;;5053492;28;20040;-34
2023/08/08 08:22:17;;;;;;;1.60;0.90;;;25.00;75.30;;;;;;5062433;28;20063;-34
2023/08/08 08:24:43;;;;;;;1.35;0.85;;;25.00;75.30;;;;;;5061563;28;20032;-34
2023/08/08 08:27:10;;;;;;;1.80;0.82;;;25.00;75.30;;;;;;5067607;28;20041;-34
2023/08/08 08:29:36;;;;;;;1.33;0.70;;;25.00;75.30;;;;;;5067278;28;20029;-35
2023/08/08 08:32:02;;;;;;;1.52;0.90;;;25.00;75.30;;;;;;5061476;28;20049;-34
2023/08/08 08:34:28;;;;;;;0.77;0.77;;;25.00;75.30;;;;;;5070602;28;20021;-34
2023/08/08 08:36:54;;;;;;;1.67;0.80;;;25.00;75.40;;;;;;5054256;28;20035;-34
2023/08/08 08:39:20;;;;;;;0.88;0.70;;;25.00;75.40;;;;;;5061991;28;20023;-34
2023/08/08 08:41:49;;;;;;;1.43;0.80;;;25.00;75.50;;;;;;5061575;28;20041;-34
2023/08/08 08:44:16;;;;;;;1.73;0.80;;;25.00;75.50;;;;;;5051552;28;20052;-34
2023/08/08 08:46:43;;;;;;;1.17;0.70;;;25.00;75.40;;;;;;5063590;28;20024;-34
2023/08/08 08:49:09;;;;;;;0.80;0.80;;;25.00;75.40;;;;;;5044331;28;20047;-34
2023/08/08 08:51:36;;;;;;;1.07;0.70;;;25.00;75.60;;;;;;5027000;28;20588;-34
2023/08/08 08:54:03;;;;;;;0.90;0.77;;;25.00;75.60;;;;;;5063069;28;20272;-34
2023/08/08 08:56:29;;;;;;;1.23;0.85;;;25.00;75.60;;;;;;5070941;28;20033;-34
2023/08/08 08:58:55;;;;;;;1.13;0.82;;;24.90;75.50;;;;;;5064185;28;20112;-34
2023/08/08 09:01:22;;;;;;;1.20;0.80;;;24.90;75.60;;;;;;5063650;28;20036;-34
2023/08/08 09:03:48;;;;;;;0.98;0.68;;;24.90;75.60;;;;;;5039828;28;20435;-34
2023/08/08 09:06:16;;;;;;;2.00;0.60;;;24.90;75.60;;;;;;5061683;28;20088;-34
2023/08/08 09:08:42;;;;;;;1.00;0.90;;;24.90;75.60;;;;;;5040513;28;20021;-34
2023/08/08 09:11:08;;;;;;;0.70;0.70;;;25.00;75.60;;;;;;5063545;28;20036;-34
2023/08/08 09:13:40;;;;;;;0.83;0.80;;;24.90;75.60;;;;;;5064046;28;20190;-34
2023/08/08 09:16:08;;;;;;;2.03;0.70;;;24.90;75.80;;;;;;5063421;28;20284;-34
2023/08/08 09:18:38;;;;;;;0.75;0.73;;;24.90;75.70;;;;;;5054507;28;20036;-34
2023/08/08 09:21:04;;;;;;;0.93;0.70;;;24.90;75.70;;;;;;5054711;28;20549;-34
2023/08/08 09:23:31;;;;;;;1.05;0.75;;;24.90;75.70;;;;;;5065203;28;20041;-34
2023/08/08 09:25:57;;;;;;;0.83;0.70;;;24.90;75.70;;;;;;5076954;28;20052;-34
2023/08/08 09:28:23;;;;;;;2.28;0.82;;;24.90;75.70;;;;;;5037647;28;20297;-34
2023/08/08 09:30:49;;;;;;;0.80;0.80;;;24.90;75.80;;;;;;5056441;28;20029;-34
2023/08/08 09:33:17;;;;;;;0.70;0.70;;;24.80;75.70;;;;;;5040948;28;20021;-34
2023/08/08 09:35:44;;;;;;;0.73;0.73;;;24.80;75.70;;;;;;5052322;28;20033;-34
2023/08/08 09:38:10;;;;;;;0.93;0.93;;;24.80;75.70;;;;;;5051802;28;20079;-34
2023/08/08 09:40:36;;;;;;;1.27;0.80;;;24.80;75.70;;;;;;5062580;28;20063;-34
2023/08/08 09:43:02;;;;;;;0.80;0.80;;;24.80;75.80;;;;;;5069080;28;20036;-34
2023/08/08 09:45:37;;;;;;;0.70;0.70;;;24.80;75.70;;;;;;5057550;28;20128;-34
2023/08/08 09:48:04;;;;;;;0.80;0.80;;;24.80;75.70;;;;;;5060096;28;20654;-34
2023/08/08 09:50:32;;;;;;;1.33;1.00;;;24.80;75.80;;;;;;5062183;28;20033;-34
2023/08/08 09:52:58;;;;;;;0.70;0.70;;;24.80;75.70;;;;;;5058133;28;20040;-34
2023/08/08 09:55:24;;;;;;;1.13;0.70;;;24.80;75.70;;;;;;5070916;28;20115;-34
2023/08/08 09:57:50;;;;;;;1.00;0.82;;;24.80;75.70;;;;;;5062110;28;20029;-34
2023/08/08 10:00:17;;;;;;;1.02;0.80;;;24.80;75.70;;;;;;5036962;28;20036;-34
2023/08/08 10:02:46;;;;;;;0.70;0.70;;;24.80;75.70;;;;;;5052359;28;20034;-34
2023/08/08 10:05:13;;;;;;;0.85;0.70;;;24.80;75.80;;;;;;5067233;28;20058;-34
2023/08/08 10:07:43;;;;;;;0.90;0.90;;;24.80;75.80;;;;;;5059552;28;20029;-34
2023/08/08 10:10:09;;;;;;;1.10;1.00;;;24.80;75.80;;;;;;5059985;28;20029;-34
2023/08/08 10:12:39;;;;;;;0.80;0.80;;;24.80;75.80;;;;;;5069544;28;20115;-34
2023/08/08 10:15:11;;;;;;;1.33;1.15;;;24.80;75.90;;;;;;5061746;28;20037;-34
2023/08/08 10:17:41;;;;;;;0.80;0.80;;;24.80;76.00;;;;;;5052478;28;20021;-34
2023/08/08 10:20:11;;;;;;;0.93;0.80;;;24.70;75.90;;;;;;5053241;28;20029;-34
2023/08/08 10:22:41;;;;;;;1.40;0.75;;;24.70;75.90;;;;;;5063815;28;20043;-34
2023/08/08 10:25:08;;;;;;;1.55;0.80;;;24.70;75.90;;;;;;5068437;28;20020;-34
2023/08/08 10:27:38;;;;;;;0.88;0.88;;;24.70;76.00;;;;;;5052362;28;20055;-34
2023/08/08 10:30:09;;;;;;;0.80;0.80;;;24.70;75.90;;;;;;5069310;28;20021;-34
2023/08/08 10:32:43;;;;;;;0.80;0.70;;;24.70;76.60;;;;;;5054882;28;20053;-34
2023/08/08 10:35:09;;;;;;;1.35;0.88;;;24.70;76.00;;;;;;5058691;28;20143;-34
2023/08/08 10:37:37;;;;;;;0.80;0.80;;;24.70;76.10;;;;;;5068946;28;20900;-34
2023/08/08 10:40:07;;;;;;;0.80;0.80;;;24.70;76.10;;;;;;5051566;28;20032;-34
2023/08/08 10:42:41;;;;;;;2.10;0.90;;;24.70;76.10;;;;;;5066390;28;20076;-34
2023/08/08 10:45:11;;;;;;;1.13;1.00;;;24.70;76.10;;;;;;5069633;28;20242;-34
2023/08/08 10:47:37;;;;;;;1.77;0.90;;;24.70;76.10;;;;;;5065477;28;20044;-34
2023/08/08 10:50:13;;;;;;;0.60;0.60;;;24.60;76.00;;;;;;5064473;28;20044;-34
2023/08/08 10:52:54;;;;;;;1.15;0.90;;;24.60;76.10;;;;;;5072107;28;20033;-34
2023/08/08 10:55:36;;;;;;;0.73;0.70;;;24.60;76.10;;;;;;5071741;28;20035;-34
2023/08/08 10:58:10;;;;;;;1.00;0.80;;;24.60;76.10;;;;;;5057902;28;20033;-34
2023/08/08 11:00:39;;;;;;;0.90;0.80;;;24.60;76.10;;;;;;5064486;28;20024;-34
2023/08/08 11:03:05;;;;;;;1.35;0.85;;;24.60;76.10;;;;;;5069588;28;20032;-33
2023/08/08 11:05:32;;;;;;;1.73;0.80;;;24.60;76.10;;;;;;5067294;28;20138;-34
2023/08/08 11:08:02;;;;;;;;;;;24.60;76.20;;;;;;5061136;28;20029;-34
2023/08/08 11:10:30;;;;;;;1.00;0.90;;;24.60;76.20;;;;;;5079943;28;19908;-34
2023/08/08 11:13:06;;;;;;;1.35;0.80;;;24.60;76.20;;;;;;5070648;28;20033;-33
2023/08/08 11:15:33;;;;;;;1.13;0.98;;;24.60;76.20;;;;;;5075240;28;20098;-34
2023/08/08 11:17:59;;;;;;;2.85;0.90;;;24.60;76.20;;;;;;5056667;28;20075;-34
2023/08/08 11:20:29;;;;;;;0.88;0.88;;;24.60;76.20;;;;;;5069225;28;20461;-34
2023/08/08 11:22:55;;;;;;;1.00;0.90;;;24.60;76.20;;;;;;5073025;28;20119;-34
2023/08/08 11:25:22;;;;;;;1.65;0.85;;;24.60;76.20;;;;;;5051231;28;20026;-33
2023/08/08 11:27:51;;;;;;;1.02;1.00;;;24.60;76.30;;;;;;5063784;28;20032;-34
2023/08/08 11:30:17;;;;;;;0.75;0.75;;;24.60;76.20;;;;;;5052700;28;20025;-34
2023/08/08 11:32:43;;;;;;;0.90;0.90;;;24.50;76.20;;;;;;5060955;28;20109;-34
2023/08/08 11:35:09;;;;;;;2.08;0.85;;;24.50;76.20;;;;;;5061853;28;20033;-34
2023/08/08 11:37:35;;;;;;;1.10;0.93;;;24.50;76.30;;;;;;5068765;28;20167;-34
2023/08/08 11:40:02;;;;;;;0.90;0.90;;;24.50;76.40;;;;;;5064265;28;20025;-34
2023/08/08 11:42:28;;;;;;;1.00;0.90;;;24.50;76.30;;;;;;5055247;28;20038;-34
2023/08/08 11:44:54;;;;;;;0.80;0.80;;;24.50;76.40;;;;;;5053333;28;20056;-34
2023/08/08 11:47:25;;;;;;;1.00;0.90;;;24.50;76.40;;;;;;5056976;28;20029;-34
2023/08/08 11:49:52;;;;;;;0.95;0.70;;;24.50;76.40;;;;;;5063296;28;20029;-34
2023/08/08 11:52:19;;;;;;;1.00;0.90;;;24.50;76.40;;;;;;5059842;28;20098;-34
2023/08/08 11:54:52;;;;;;;1.17;1.08;;;24.50;77.20;;;;;;5062037;28;20044;-34
2023/08/08 11:57:18;;;;;;;1.67;1.00;;;24.50;76.40;;;;;;5057605;28;20043;-34
2023/08/08 11:59:44;;;;;;;1.10;0.73;;;24.50;76.40;;;;;;5068371;28;20028;-34
2023/08/08 12:02:10;;;;;;;1.10;1.00;;;24.50;76.40;;;;;;5079264;28;20123;-34
2023/08/08 12:04:36;;;;;;;0.85;0.80;;;24.50;76.40;;;;;;5046785;28;20021;-34
2023/08/08 12:07:03;;;;;;;0.88;0.88;;;24.50;76.40;;;;;;5061646;28;20805;-34
2023/08/08 12:09:32;;;;;;;0.80;0.80;;;24.50;76.40;;;;;;5058731;28;20083;-34
2023/08/08 12:12:02;;;;;;;1.10;1.00;;;24.50;76.50;;;;;;5057315;28;20029;-34
2023/08/08 12:14:28;;;;;;;1.63;1.08;;;24.50;76.50;;;;;;5057892;28;20027;-34
2023/08/08 12:16:55;;;;;;;0.82;0.80;;;24.40;76.40;;;;;;5063548;28;20089;-34
2023/08/08 12:19:25;;;;;;;2.00;0.90;;;24.40;76.50;;;;;;5055697;28;20022;-34
2023/08/08 12:21:51;;;;;;;1.13;0.98;;;24.40;76.50;;;;;;5060170;28;20041;-34
2023/08/08 12:24:18;;;;;;;1.52;0.95;;;24.40;76.60;;;;;;5068199;28;20032;-34
2023/08/08 12:26:45;;;;;;;1.45;1.02;;;24.40;76.60;;;;;;5056833;28;20043;-34
2023/08/08 12:29:12;;;;;;;0.90;0.90;;;24.40;76.50;;;;;;5045828;28;20088;-34
2023/08/08 12:31:39;;;;;;;1.20;0.95;;;24.40;76.60;;;;;;5071022;28;20052;-34
2023/08/08 12:34:05;;;;;;;;;;;24.40;76.60;;;;;;5068124;28;20045;-34
2023/08/08 12:36:31;;;;;;;2.35;1.00;;;24.40;76.60;;;;;;5062404;28;20487;-34
2023/08/08 12:38:57;;;;;;;1.15;0.88;;;24.40;76.60;;;;;;5063441;28;20021;-34
2023/08/08 12:41:26;;;;;;;0.60;0.60;;;24.40;76.60;;;;;;5062356;28;20037;-34
2023/08/08 12:43:52;;;;;;;0.90;0.90;;;24.40;76.60;;;;;;5067918;28;20055;-34
2023/08/08 12:46:19;;;;;;;1.17;1.08;;;24.40;76.50;;;;;;5067574;28;20025;-34
2023/08/08 12:48:45;;;;;;;1.27;0.90;;;24.40;76.60;;;;;;5067652;28;20043;-34
2023/08/08 12:51:11;;;;;;;2.87;0.90;;;24.40;76.60;;;;;;5061641;28;20025;-34
2023/08/08 12:53:37;;;;;;;0.90;0.90;;;24.40;76.60;;;;;;5066564;28;20106;-34
2023/08/08 12:56:03;;;;;;;1.75;1.15;;;24.40;76.70;;;;;;5056514;28;20109;-34
2023/08/08 12:58:30;;;;;;;1.20;1.10;;;24.40;76.60;;;;;;5069643;28;20095;-34
2023/08/08 13:00:56;;;;;;;1.25;1.00;;;24.40;76.70;;;;;;5073754;28;20155;-34
2023/08/08 13:03:22;;;;;;;1.45;1.02;;;24.40;76.80;;;;;;5063465;28;20040;-34
2023/08/08 13:05:48;;;;;;;1.05;1.05;;;24.40;76.80;;;;;;5065877;28;20017;-34
2023/08/08 13:08:15;;;;;;;1.57;1.07;;;24.40;76.70;;;;;;5069962;28;20040;-34
2023/08/08 13:10:41;;;;;;;1.33;1.10;;;24.40;76.80;;;;;;5034031;28;20167;-34
2023/08/08 13:13:08;;;;;;;0.93;0.93;;;24.40;76.90;;;;;;5042209;28;20040;-34
2023/08/08 13:15:35;;;;;;;1.40;1.00;;;24.40;76.90;;;;;;5059022;28;20053;-34
2023/08/08 13:18:01;;;;;;;1.52;1.10;;;24.40;77.00;;;;;;5062808;28;20021;-37
2023/08/08 13:20:27;;;;;;;1.30;1.20;;;24.40;77.00;;;;;;5060321;28;20021;-34
2023/08/08 13:22:54;;;;;;;1.25;1.15;;;24.40;77.10;;;;;;5063064;28;20041;-34
2023/08/08 13:25:20;;;;;;;1.65;1.10;;;24.40;77.10;;;;;;5063167;28;20059;-35
2023/08/08 13:27:47;;;;;;;1.00;1.00;;;24.40;77.10;;;;;;5068976;28;20029;-35